createdAt,value
2023-05-11T00:00:33.069Z,94.70
2023-05-11T00:02:59.875Z,94.70
2023-05-11T00:05:26.612Z,94.70
2023-05-11T00:07:53.189Z,94.80
2023-05-11T00:10:20.090Z,95.10
2023-05-11T00:12:46.907Z,95.10
2023-05-11T00:15:13.499Z,95.10
2023-05-11T00:17:40.121Z,95.30
2023-05-11T00:20:07.665Z,95.40
2023-05-11T00:22:34.286Z,95.60
2023-05-11T00:25:00.927Z,95.60
2023-05-11T00:27:27.593Z,95.70
2023-05-11T00:29:54.191Z,95.60
2023-05-11T00:32:20.829Z,95.60
2023-05-11T00:34:47.477Z,95.50
2023-05-11T00:37:14.035Z,95.70
2023-05-11T00:39:41.492Z,95.80
2023-05-11T00:42:08.153Z,95.70
2023-05-11T00:44:34.762Z,95.70
2023-05-11T00:47:01.460Z,95.80
2023-05-11T00:49:29.705Z,95.90
2023-05-11T00:51:57.729Z,96.00
2023-05-11T00:54:24.648Z,96.50
2023-05-11T00:56:51.758Z,96.60
2023-05-11T00:59:18.755Z,96.60
2023-05-11T01:01:45.575Z,96.80
2023-05-11T01:04:12.761Z,96.80
2023-05-11T01:06:42.486Z,96.90
2023-05-11T01:09:13.036Z,97.00
2023-05-11T01:11:45.946Z,96.80
2023-05-11T01:14:24.712Z,96.80
2023-05-11T01:16:55.794Z,96.70
2023-05-11T01:19:28.556Z,96.90
2023-05-11T01:21:55.294Z,96.60
2023-05-11T01:24:30.981Z,96.80
2023-05-11T01:26:57.662Z,96.90
2023-05-11T01:29:24.268Z,96.80
2023-05-11T01:31:52.190Z,96.60
2023-05-11T01:34:21.362Z,96.60
2023-05-11T01:36:58.678Z,96.80
2023-05-11T01:39:30.330Z,96.70
2023-05-11T01:41:58.330Z,96.70
2023-05-11T01:44:25.754Z,96.90
2023-05-11T01:46:53.144Z,96.80
2023-05-11T01:49:20.282Z,96.70
2023-05-11T01:51:49.429Z,96.70
2023-05-11T01:54:17.023Z,96.70
2023-05-11T01:56:44.442Z,96.70
2023-05-11T01:59:12.063Z,96.90
2023-05-11T02:01:39.496Z,96.90
2023-05-11T02:04:06.727Z,97.00
2023-05-11T02:06:34.318Z,96.90
2023-05-11T02:09:01.744Z,96.80
2023-05-11T02:11:29.214Z,97.10
2023-05-11T02:13:56.882Z,97.30
2023-05-11T02:16:24.599Z,97.40
2023-05-11T02:18:52.283Z,97.30
2023-05-11T02:21:19.942Z,97.40
2023-05-11T02:23:47.285Z,97.40
2023-05-11T02:26:14.764Z,97.60
2023-05-11T02:28:41.391Z,97.70
2023-05-11T02:31:10.280Z,97.70
2023-05-11T02:33:39.592Z,97.70
2023-05-11T02:36:06.731Z,97.80
2023-05-11T02:38:34.406Z,97.70
2023-05-11T02:41:03.960Z,97.70
2023-05-11T02:43:35.200Z,97.70
2023-05-11T02:46:06.882Z,97.90
2023-05-11T02:48:39.674Z,97.80
2023-05-11T02:51:07.387Z,98.00
2023-05-11T02:53:34.971Z,98.00
2023-05-11T02:56:01.678Z,97.90
2023-05-11T02:58:28.990Z,98.20
2023-05-11T03:00:56.400Z,98.20
2023-05-11T03:03:23.449Z,98.20
2023-05-11T03:05:50.311Z,98.30
2023-05-11T03:08:16.934Z,98.40
2023-05-11T03:10:44.327Z,98.30
2023-05-11T03:13:11.394Z,98.40
2023-05-11T03:15:38.105Z,98.60
2023-05-11T03:18:05.853Z,98.40
2023-05-11T03:20:33.948Z,98.40
2023-05-11T03:23:00.696Z,98.40
2023-05-11T03:25:29.007Z,98.30
2023-05-11T03:27:57.312Z,98.20
2023-05-11T03:30:24.001Z,98.30
2023-05-11T03:32:50.604Z,98.30
2023-05-11T03:35:17.361Z,98.40
2023-05-11T03:37:44.597Z,98.50
2023-05-11T03:40:12.264Z,98.40
2023-05-11T03:42:39.863Z,98.40
2023-05-11T03:45:07.783Z,98.50
2023-05-11T03:47:35.966Z,98.50
2023-05-11T03:50:03.250Z,98.40
2023-05-11T03:52:30.571Z,98.40
2023-05-11T03:54:57.169Z,98.60
2023-05-11T03:57:27.543Z,98.40
2023-05-11T03:59:54.224Z,98.30
2023-05-11T04:02:21.980Z,98.20
2023-05-11T04:04:48.784Z,98.20
2023-05-11T04:07:15.638Z,98.20
2023-05-11T04:09:42.492Z,98.30
2023-05-11T04:12:10.545Z,98.30
2023-05-11T04:14:37.385Z,98.20
2023-05-11T04:17:04.178Z,98.10
2023-05-11T04:19:30.799Z,98.00
2023-05-11T04:21:57.556Z,97.90
2023-05-11T04:24:24.323Z,97.80
2023-05-11T04:26:55.529Z,97.70
2023-05-11T04:29:22.193Z,97.60
2023-05-11T04:31:48.882Z,97.50
2023-05-11T04:34:15.557Z,97.70
2023-05-11T04:36:42.163Z,97.70
2023-05-11T04:39:08.853Z,97.60
2023-05-11T04:41:35.417Z,97.40
2023-05-11T04:44:01.981Z,97.30
2023-05-11T04:46:28.682Z,96.90
2023-05-11T04:48:55.359Z,97.00
2023-05-11T04:59:20.829Z,96.80
2023-05-11T05:01:47.466Z,96.90
2023-05-11T05:04:14.288Z,96.70
2023-05-11T05:06:40.993Z,96.60
2023-05-11T05:09:07.836Z,96.30
2023-05-11T05:11:34.443Z,96.10
2023-05-11T05:14:01.014Z,95.60
2023-05-11T05:16:27.888Z,95.00
2023-05-11T05:18:55.381Z,94.50
2023-05-11T05:21:21.977Z,94.10
2023-05-11T05:23:48.678Z,93.70
2023-05-11T05:26:15.598Z,93.50
2023-05-11T05:28:42.180Z,93.20
2023-05-11T05:31:08.780Z,93.20
2023-05-11T05:33:35.499Z,92.50
2023-05-11T05:36:02.147Z,93.10
2023-05-11T05:38:28.858Z,93.10
2023-05-11T05:40:55.560Z,93.50
2023-05-11T05:43:22.208Z,92.80
2023-05-11T05:45:48.979Z,92.90
2023-05-11T05:48:15.678Z,92.30
2023-05-11T05:50:42.398Z,92.40
2023-05-11T05:53:09.131Z,91.80
2023-05-11T05:55:35.765Z,91.70
2023-05-11T05:58:02.380Z,91.00
2023-05-11T06:00:29.054Z,91.40
2023-05-11T06:02:55.853Z,91.20
2023-05-11T06:05:22.569Z,91.90
2023-05-11T06:07:58.039Z,91.40
2023-05-11T06:10:28.840Z,91.90
2023-05-11T06:12:55.677Z,90.80
2023-05-11T06:15:23.011Z,90.30
2023-05-11T06:17:49.646Z,90.10
2023-05-11T06:20:16.285Z,90.50
2023-05-11T06:22:42.987Z,90.50
2023-05-11T06:25:09.742Z,90.10
2023-05-11T06:27:36.423Z,89.70
2023-05-11T06:30:03.119Z,88.40
2023-05-11T06:32:29.731Z,89.30
2023-05-11T06:34:56.375Z,88.80
2023-05-11T06:37:22.951Z,87.60
2023-05-11T06:39:49.604Z,87.70
2023-05-11T06:42:16.278Z,86.90
2023-05-11T06:44:42.914Z,87.80
2023-05-11T06:47:09.671Z,86.90
2023-05-11T06:49:36.909Z,87.60
2023-05-11T06:52:03.766Z,86.60
2023-05-11T06:54:30.415Z,87.00
2023-05-11T06:56:57.042Z,86.90
2023-05-11T06:59:23.750Z,85.60
2023-05-11T07:01:50.859Z,84.50
2023-05-11T07:04:17.504Z,84.60
2023-05-11T07:06:44.139Z,83.60
2023-05-11T07:09:10.738Z,83.90
2023-05-11T07:11:37.464Z,83.60
2023-05-11T07:14:04.055Z,83.00
2023-05-11T07:16:30.736Z,82.40
2023-05-11T07:18:57.433Z,82.50
2023-05-11T07:21:24.028Z,81.80
2023-05-11T07:23:50.664Z,80.90
2023-05-11T07:26:17.241Z,82.20
2023-05-11T07:28:43.881Z,81.20
2023-05-11T07:31:10.687Z,80.90
2023-05-11T07:33:38.611Z,81.40
2023-05-11T07:36:06.035Z,81.30
2023-05-11T07:38:32.867Z,81.00
2023-05-11T07:40:59.795Z,80.10
2023-05-11T07:43:26.795Z,82.00
2023-05-11T07:45:53.501Z,82.90
2023-05-11T07:48:20.798Z,79.10
2023-05-11T07:50:49.460Z,77.90
2023-05-11T07:53:16.626Z,78.40
2023-05-11T07:55:43.208Z,78.40
2023-05-11T07:58:09.814Z,80.40
2023-05-11T08:00:36.693Z,78.00
2023-05-11T08:03:03.401Z,79.10
2023-05-11T08:05:30.711Z,79.80
2023-05-11T08:07:57.292Z,77.60
2023-05-11T08:10:23.923Z,76.40
2023-05-11T08:12:50.577Z,77.70
2023-05-11T08:15:17.867Z,79.60
2023-05-11T08:17:46.104Z,75.20
2023-05-11T08:20:13.285Z,75.80
2023-05-11T08:22:39.872Z,75.60
2023-05-11T08:25:06.884Z,76.70
2023-05-11T08:27:33.455Z,77.00
2023-05-11T08:30:02.358Z,75.80
2023-05-11T08:32:29.407Z,75.70
2023-05-11T08:34:56.169Z,75.90
2023-05-11T08:37:23.316Z,75.60
2023-05-11T08:39:49.970Z,75.90
2023-05-11T08:42:17.089Z,73.70
2023-05-11T08:44:44.461Z,74.70
2023-05-11T08:47:22.817Z,75.30
2023-05-11T08:49:51.094Z,75.80
2023-05-11T08:52:18.169Z,73.90
2023-05-11T08:54:45.241Z,71.50
2023-05-11T08:57:13.259Z,73.70
2023-05-11T08:59:41.181Z,74.70
2023-05-11T09:02:09.932Z,71.20
2023-05-11T09:04:37.055Z,70.90
2023-05-11T09:07:04.060Z,72.20
2023-05-11T09:09:31.067Z,71.50
2023-05-11T09:11:57.991Z,71.60
2023-05-11T09:14:27.633Z,70.00
2023-05-11T09:16:54.593Z,68.00
2023-05-11T09:19:21.891Z,69.00
2023-05-11T09:21:48.509Z,70.30
2023-05-11T09:24:15.212Z,68.60
2023-05-11T09:26:41.817Z,66.70
2023-05-11T09:29:08.722Z,65.20
2023-05-11T09:31:39.586Z,64.50
2023-05-11T09:34:16.453Z,65.00
2023-05-11T09:36:46.896Z,65.30
2023-05-11T09:39:15.824Z,67.10
2023-05-11T09:41:43.348Z,66.30
2023-05-11T09:44:11.483Z,64.70
2023-05-11T09:46:38.533Z,64.70
2023-05-11T09:49:05.696Z,63.20
2023-05-11T09:51:33.844Z,62.20
2023-05-11T09:54:01.415Z,61.20
2023-05-11T09:56:42.447Z,60.20
2023-05-11T09:59:09.160Z,58.80
2023-05-11T10:01:37.784Z,55.80
2023-05-11T10:04:13.899Z,56.80
2023-05-11T10:06:48.491Z,56.70
2023-05-11T10:09:15.910Z,54.50
2023-05-11T10:11:44.430Z,55.70
2023-05-11T10:14:14.695Z,55.60
2023-05-11T10:16:42.234Z,54.50
2023-05-11T10:19:09.057Z,55.40
2023-05-11T10:21:35.930Z,57.80
2023-05-11T10:24:03.742Z,57.10
2023-05-11T10:26:33.428Z,56.30
2023-05-11T10:29:00.949Z,54.30
2023-05-11T10:31:28.580Z,54.40
2023-05-11T10:33:55.367Z,54.30
2023-05-11T10:36:23.553Z,53.40
2023-05-11T10:38:50.136Z,52.80
2023-05-11T10:41:24.771Z,52.70
2023-05-11T10:44:03.353Z,51.70
2023-05-11T10:46:51.825Z,51.10
2023-05-11T10:49:25.968Z,51.60
2023-05-11T10:52:11.273Z,51.80
2023-05-11T10:54:37.861Z,53.20
2023-05-11T10:57:04.408Z,50.40
2023-05-11T10:59:49.886Z,51.50
2023-05-11T11:02:18.596Z,50.70
2023-05-11T11:04:46.528Z,51.20
2023-05-11T11:07:19.731Z,51.10
2023-05-11T11:10:06.311Z,52.00
2023-05-11T11:12:35.076Z,52.40
2023-05-11T11:15:06.318Z,53.40
2023-05-11T11:17:34.943Z,52.30
2023-05-11T11:20:07.348Z,51.00
2023-05-11T11:22:38.578Z,52.30
2023-05-11T11:25:06.295Z,53.90
2023-05-11T11:27:45.221Z,54.50
2023-05-11T11:30:17.411Z,55.60
2023-05-11T11:32:46.120Z,53.90
2023-05-11T11:35:31.425Z,56.10
2023-05-11T11:38:04.590Z,56.00
2023-05-11T11:40:52.822Z,53.80
2023-05-11T11:43:19.893Z,55.50
2023-05-11T11:45:50.868Z,54.70
2023-05-11T11:48:21.389Z,55.10
2023-05-11T11:50:48.631Z,55.70
2023-05-11T11:53:34.749Z,54.90
2023-05-11T11:56:01.535Z,53.90
2023-05-11T11:58:40.402Z,55.80
2023-05-11T12:01:12.022Z,55.30
2023-05-11T12:03:39.258Z,55.50
2023-05-11T12:06:07.906Z,56.10
2023-05-11T12:08:35.268Z,54.90
2023-05-11T12:11:02.690Z,55.10
2023-05-11T12:13:29.365Z,56.00
2023-05-11T12:16:08.179Z,56.30
2023-05-11T12:18:35.172Z,57.10
2023-05-11T12:21:02.295Z,58.70
2023-05-11T12:23:29.135Z,57.50
2023-05-11T12:26:05.549Z,55.60
2023-05-11T12:28:34.874Z,56.80
2023-05-11T12:31:01.758Z,55.80
2023-05-11T12:33:28.335Z,55.00
2023-05-11T12:35:55.781Z,55.50
2023-05-11T12:38:22.799Z,55.30
2023-05-11T12:40:52.870Z,56.40
2023-05-11T12:43:20.304Z,54.40
2023-05-11T12:45:47.132Z,56.30
2023-05-11T12:48:14.505Z,55.10
2023-05-11T12:50:45.682Z,54.90
2023-05-11T12:53:16.128Z,52.60
2023-05-11T12:55:43.072Z,52.50
2023-05-11T12:58:09.710Z,54.10
2023-05-11T13:00:36.490Z,54.50
2023-05-11T13:03:03.578Z,53.80
2023-05-11T13:05:30.431Z,54.60
2023-05-11T13:08:01.200Z,53.90
2023-05-11T13:10:27.870Z,53.30
2023-05-11T13:12:55.012Z,53.40
2023-05-11T13:15:22.569Z,52.70
2023-05-11T13:17:55.558Z,52.50
2023-05-11T13:20:27.265Z,51.00
2023-05-11T13:23:04.452Z,52.60
2023-05-11T13:25:31.779Z,51.60
2023-05-11T13:27:58.423Z,53.90
2023-05-11T13:30:25.103Z,52.00
2023-05-11T13:32:51.740Z,51.60
2023-05-11T13:35:18.566Z,51.60
2023-05-11T13:37:46.944Z,51.00
2023-05-11T13:40:13.978Z,49.00
2023-05-11T13:42:41.988Z,50.90
2023-05-11T13:45:08.773Z,50.30
2023-05-11T13:47:35.927Z,50.60
2023-05-11T13:50:02.729Z,48.60
2023-05-11T13:52:29.401Z,48.70
2023-05-11T13:54:56.851Z,49.40
2023-05-11T13:57:23.503Z,49.90
2023-05-11T13:59:50.460Z,50.70
2023-05-11T14:02:17.202Z,48.10
2023-05-11T14:04:43.865Z,48.20
2023-05-11T14:07:10.533Z,49.30
2023-05-11T14:09:37.228Z,49.20
2023-05-11T14:12:04.093Z,49.00
2023-05-11T14:14:30.702Z,49.00
2023-05-11T14:16:57.303Z,48.70
2023-05-11T14:19:23.947Z,48.80
2023-05-11T14:21:50.957Z,49.00
2023-05-11T14:24:17.556Z,49.20
2023-05-11T14:26:44.199Z,49.60
2023-05-11T14:29:10.846Z,48.00
2023-05-11T14:31:37.921Z,48.40
2023-05-11T14:34:04.682Z,50.10
2023-05-11T14:36:32.004Z,49.90
2023-05-11T14:38:58.613Z,48.60
2023-05-11T14:41:25.578Z,48.00
2023-05-11T14:43:52.320Z,49.10
2023-05-11T14:46:19.530Z,49.50
2023-05-11T14:48:46.379Z,48.00
2023-05-11T14:51:13.053Z,50.10
2023-05-11T14:53:39.833Z,50.20
2023-05-11T14:56:06.750Z,50.10
2023-05-11T14:58:33.341Z,48.40
2023-05-11T15:00:59.920Z,50.80
2023-05-11T15:03:26.649Z,49.00
2023-05-11T15:05:53.367Z,50.20
2023-05-11T15:08:29.719Z,49.00
2023-05-11T15:10:57.086Z,47.60
2023-05-11T15:13:24.168Z,48.00
2023-05-11T15:15:51.358Z,47.00
2023-05-11T15:18:18.256Z,48.40
2023-05-11T15:20:44.966Z,47.30
2023-05-11T15:23:16.393Z,46.50
2023-05-11T15:25:44.409Z,45.60
2023-05-11T15:28:13.960Z,44.60
2023-05-11T15:30:42.025Z,43.90
2023-05-11T15:33:09.804Z,43.60
2023-05-11T15:35:36.828Z,43.00
2023-05-11T15:38:03.634Z,44.30
2023-05-11T15:40:30.613Z,44.80
2023-05-11T15:42:58.789Z,45.60
2023-05-11T15:45:26.045Z,46.80
2023-05-11T15:47:52.858Z,45.90
2023-05-11T15:50:19.963Z,46.60
2023-05-11T15:52:47.042Z,47.20
2023-05-11T15:55:13.669Z,47.70
2023-05-11T15:57:40.264Z,47.60
2023-05-11T16:00:10.069Z,47.20
2023-05-11T16:02:36.851Z,46.80
2023-05-11T16:05:03.566Z,47.60
2023-05-11T16:07:30.208Z,48.40
2023-05-11T16:09:56.950Z,48.40
2023-05-11T16:12:23.569Z,48.80
2023-05-11T16:14:50.215Z,49.40
2023-05-11T16:17:17.004Z,49.20
2023-05-11T16:19:43.675Z,49.10
2023-05-11T16:22:10.240Z,48.90
2023-05-11T16:24:36.856Z,49.50
2023-05-11T16:27:03.968Z,49.80
2023-05-11T16:29:30.583Z,49.80
2023-05-11T16:31:57.196Z,50.50
2023-05-11T16:34:23.847Z,50.40
2023-05-11T16:36:50.442Z,50.80
2023-05-11T16:39:17.057Z,49.10
2023-05-11T16:41:43.792Z,49.40
2023-05-11T16:44:10.422Z,49.70
2023-05-11T16:46:37.065Z,50.00
2023-05-11T16:49:03.728Z,50.50
2023-05-11T16:51:30.410Z,50.40
2023-05-11T16:53:57.218Z,50.90
2023-05-11T16:56:23.941Z,48.80
2023-05-11T16:58:50.531Z,49.10
2023-05-11T17:01:17.198Z,50.40
2023-05-11T17:03:43.867Z,52.60
2023-05-11T17:06:13.540Z,52.80
2023-05-11T17:08:40.583Z,53.80
2023-05-11T17:11:07.430Z,53.90
2023-05-11T17:13:34.137Z,53.60
2023-05-11T17:16:00.883Z,54.10
2023-05-11T17:18:27.766Z,53.50
2023-05-11T17:20:55.939Z,55.80
2023-05-11T17:23:23.001Z,55.70
2023-05-11T17:25:49.754Z,55.40
2023-05-11T17:28:16.591Z,54.70
2023-05-11T17:30:48.780Z,54.80
2023-05-11T17:33:16.317Z,55.00
2023-05-11T17:36:09.409Z,53.60
2023-05-11T17:42:04.218Z,53.70
2023-05-11T17:44:30.867Z,54.50
2023-05-11T17:46:57.846Z,53.90
2023-05-11T17:49:24.469Z,54.10
2023-05-11T17:51:51.162Z,53.80
2023-05-11T17:54:17.811Z,52.40
2023-05-11T17:56:44.526Z,52.90
2023-05-11T17:59:11.174Z,54.60
2023-05-11T18:01:37.793Z,51.90
2023-05-11T18:04:04.808Z,51.50
2023-05-11T18:06:31.703Z,52.00
2023-05-11T18:08:59.078Z,52.30
2023-05-11T18:11:26.240Z,52.30
2023-05-11T18:13:52.954Z,52.70
2023-05-11T18:16:19.727Z,52.70
2023-05-11T18:18:46.505Z,52.60
2023-05-11T18:21:13.261Z,53.10
2023-05-11T18:23:39.894Z,52.90
2023-05-11T18:26:06.770Z,53.50
2023-05-11T18:28:33.432Z,52.70
2023-05-11T18:31:00.111Z,53.00
2023-05-11T18:33:26.935Z,53.20
2023-05-11T18:35:53.725Z,53.10
2023-05-11T18:38:20.392Z,53.40
2023-05-11T18:40:47.387Z,54.80
2023-05-11T18:43:14.122Z,53.70
2023-05-11T18:45:41.028Z,54.40
2023-05-11T18:48:07.882Z,55.00
2023-05-11T18:50:34.677Z,56.00
2023-05-11T18:53:02.024Z,56.20
2023-05-11T18:55:30.907Z,54.90
2023-05-11T18:57:57.914Z,55.90
2023-05-11T19:00:24.643Z,55.40
2023-05-11T19:02:51.958Z,55.60
2023-05-11T19:05:19.311Z,56.50
2023-05-11T19:07:46.300Z,59.30
2023-05-11T19:10:12.951Z,56.20
2023-05-11T19:12:39.542Z,56.40
2023-05-11T19:15:06.474Z,56.30
2023-05-11T19:17:33.391Z,56.50
2023-05-11T19:19:59.981Z,56.50
2023-05-11T19:22:26.628Z,56.40
2023-05-11T19:24:53.274Z,56.60
2023-05-11T19:27:19.933Z,57.00
2023-05-11T19:29:48.942Z,57.20
2023-05-11T19:32:15.626Z,57.40
2023-05-11T19:34:42.261Z,57.60
2023-05-11T19:37:09.164Z,57.80
2023-05-11T19:39:35.989Z,57.70
2023-05-11T19:42:02.590Z,57.70
2023-05-11T19:44:32.854Z,58.80
2023-05-11T19:46:59.507Z,58.60
2023-05-11T19:49:26.145Z,57.80
2023-05-11T19:51:52.803Z,57.70
2023-05-11T19:54:19.430Z,59.40
2023-05-11T19:56:46.684Z,59.40
2023-05-11T19:59:13.255Z,58.60
2023-05-11T20:01:39.913Z,58.40
2023-05-11T20:04:06.594Z,59.90
2023-05-11T20:06:33.431Z,59.20
2023-05-11T20:09:00.134Z,58.00
2023-05-11T20:11:26.765Z,58.90
2023-05-11T20:13:53.770Z,58.30
2023-05-11T20:16:20.558Z,58.10
2023-05-11T20:18:47.359Z,58.20
2023-05-11T20:21:14.020Z,57.70
2023-05-11T20:23:40.607Z,60.10
2023-05-11T20:26:07.251Z,59.50
2023-05-11T20:28:33.889Z,58.60
2023-05-11T20:31:00.523Z,60.40
2023-05-11T20:35:56.883Z,59.80
2023-05-11T20:38:23.522Z,59.20
2023-05-11T20:40:50.102Z,59.10
2023-05-11T20:43:16.805Z,60.80
2023-05-11T20:45:43.747Z,59.20
2023-05-11T20:48:10.838Z,61.60
2023-05-11T20:50:39.180Z,60.50
2023-05-11T20:53:06.044Z,59.60
2023-05-11T20:55:32.797Z,60.10
2023-05-11T20:57:59.626Z,60.80
2023-05-11T21:00:26.307Z,60.00
2023-05-11T21:02:53.122Z,62.00
2023-05-11T21:05:19.920Z,61.50
2023-05-11T21:07:46.539Z,61.10
2023-05-11T21:10:13.212Z,60.50
2023-05-11T21:12:39.817Z,61.90
2023-05-11T21:15:07.307Z,60.90
2023-05-11T21:17:34.252Z,61.50
2023-05-11T21:20:01.891Z,61.40
2023-05-11T21:22:28.920Z,62.00
2023-05-11T21:24:55.526Z,61.70
2023-05-11T21:27:22.201Z,62.70
2023-05-11T21:29:49.163Z,61.80
2023-05-11T21:32:15.848Z,61.90
2023-05-11T21:34:42.542Z,61.80
2023-05-11T21:37:09.264Z,62.30
2023-05-11T21:39:36.050Z,62.50
2023-05-11T21:42:02.841Z,62.30
2023-05-11T21:44:29.753Z,62.80
2023-05-11T21:46:56.456Z,63.60
2023-05-11T21:49:23.164Z,62.90
2023-05-11T21:51:50.216Z,63.40
2023-05-11T21:54:16.805Z,63.30
2023-05-11T21:56:43.399Z,63.10
2023-05-11T21:59:10.146Z,63.20
2023-05-11T22:01:36.753Z,63.70
2023-05-11T22:04:03.561Z,63.70
2023-05-11T22:06:30.875Z,64.30
2023-05-11T22:08:57.422Z,63.90
2023-05-11T22:11:24.301Z,64.20
2023-05-11T22:13:51.268Z,64.70
2023-05-11T22:16:18.890Z,65.40
2023-05-11T22:18:45.629Z,64.60
2023-05-11T22:21:12.638Z,64.40
2023-05-11T22:23:39.213Z,64.30
2023-05-11T22:26:05.841Z,64.80
2023-05-11T22:28:34.040Z,64.90
2023-05-11T22:31:05.768Z,64.70
2023-05-11T22:33:32.396Z,66.40
2023-05-11T22:35:58.959Z,65.90
2023-05-11T22:38:25.564Z,66.10
2023-05-11T22:40:52.285Z,64.70
2023-05-11T22:43:21.703Z,65.00
2023-05-11T22:45:48.302Z,64.90
2023-05-11T22:48:14.975Z,64.80
2023-05-11T22:50:49.321Z,64.90
2023-05-11T22:53:16.487Z,66.00
2023-05-11T22:55:43.042Z,65.50
2023-05-11T22:58:09.635Z,65.20
2023-05-11T23:00:36.349Z,65.60
2023-05-11T23:03:03.614Z,64.80
2023-05-11T23:05:30.319Z,64.70
2023-05-11T23:07:59.662Z,65.30
2023-05-11T23:10:27.333Z,65.20
2023-05-11T23:12:54.204Z,65.40
2023-05-11T23:15:21.086Z,64.70
2023-05-11T23:17:47.770Z,64.00
2023-05-11T23:20:14.451Z,63.70
2023-05-11T23:22:41.049Z,64.20
2023-05-11T23:25:07.950Z,64.40
2023-05-11T23:27:34.518Z,64.00
2023-05-11T23:30:01.056Z,64.00
2023-05-11T23:32:27.843Z,63.10
2023-05-11T23:34:54.513Z,63.90
2023-05-11T23:37:22.175Z,64.30
2023-05-11T23:39:48.800Z,64.10
2023-05-11T23:42:15.442Z,63.70
2023-05-11T23:44:42.220Z,63.80
2023-05-11T23:47:08.898Z,63.90
2023-05-11T23:49:35.978Z,64.50
2023-05-11T23:52:02.561Z,63.90
2023-05-11T23:54:29.159Z,63.70
2023-05-11T23:56:55.809Z,64.70
2023-05-11T23:59:22.424Z,63.90
